< < Back
Terminal Aerodrome Forecast


Current Version              Previous Versions:   1  2  3  4  5  6  7  8  9  

Terminal Aerodrome Forecast

003
FTUS42 KFFC 272343
TAFMCN
TAF
KMCN 272343Z 2800/2824 06005KT P6SM FEW070
     FM280400 07004KT P6SM SCT025
     FM280600 06004KT P6SM BKN015
     FM280900 06005KT P6SM BKN009
     FM281400 08008KT P6SM BKN020
     FM281700 10010KT P6SM BKN035=

Latest METAR

317
SAUS80 KWBC 280200 RRB
MTRMCN
METAR KMCN 280153Z AUTO 03006KT 10SM BKN065 26/20 A3002 RMK AO2 SLP160
T02610200 TSNO


USA.gov is the U.S. government's official web portal to all federal, state and local government web resources and services.